createdAt,value
2019-03-19T05:40:57.054Z,5.62
2019-03-19T05:41:57.038Z,5.62
2019-03-19T05:42:57.026Z,5.62
2019-03-19T05:43:57.011Z,5.62
2019-03-19T05:44:57.001Z,5.62
2019-03-19T05:45:57.000Z,5.62
2019-03-19T05:46:56.983Z,5.62
2019-03-19T05:47:56.975Z,5.62
2019-03-19T05:48:56.964Z,5.62
2019-03-19T05:49:56.954Z,11.25
2019-03-19T05:50:56.947Z,11.25
2019-03-19T05:51:56.963Z,5.62
2019-03-19T05:52:56.922Z,5.62
2019-03-19T05:53:56.910Z,5.62
2019-03-19T05:54:56.900Z,5.62
2019-03-19T05:55:56.890Z,11.25
2019-03-19T05:56:56.874Z,11.25
2019-03-19T05:57:56.878Z,11.25
2019-03-19T05:58:56.861Z,11.25
2019-03-19T05:59:56.841Z,11.25
2019-03-19T06:00:56.875Z,11.25
2019-03-19T06:01:56.824Z,11.25
2019-03-19T06:02:56.820Z,11.25
2019-03-19T06:03:56.812Z,11.25
2019-03-19T06:04:56.788Z,11.25
2019-03-19T06:05:56.784Z,11.25
2019-03-19T06:06:56.775Z,16.88
2019-03-19T06:07:56.769Z,16.88
2019-03-19T06:08:56.745Z,22.50
2019-03-19T06:09:56.786Z,22.50
2019-03-19T06:10:56.729Z,22.50
2019-03-19T06:11:56.720Z,22.50
2019-03-19T06:12:56.717Z,22.50
2019-03-19T06:13:56.693Z,22.50
2019-03-19T06:14:56.686Z,22.50
2019-03-19T06:15:56.675Z,22.50
2019-03-19T06:16:56.666Z,28.12
2019-03-19T06:17:56.657Z,28.12
2019-03-19T06:18:56.647Z,28.12
2019-03-19T06:19:56.628Z,28.12
2019-03-19T06:20:56.623Z,28.12
2019-03-19T06:21:56.919Z,28.12
2019-03-19T06:22:56.604Z,28.12
2019-03-19T06:23:56.585Z,28.12
2019-03-19T06:24:56.581Z,28.12
2019-03-19T06:25:56.575Z,28.12
2019-03-19T06:26:56.560Z,28.12
2019-03-19T06:28:00.726Z,33.75
2019-03-19T06:28:56.541Z,33.75
2019-03-19T06:29:56.521Z,33.75
2019-03-19T06:30:56.510Z,33.75
2019-03-19T06:31:56.502Z,33.75
2019-03-19T06:32:56.489Z,39.38
2019-03-19T06:33:56.507Z,39.38
2019-03-19T06:34:56.474Z,39.38
2019-03-19T06:35:56.468Z,39.38
2019-03-19T06:36:56.452Z,33.75
2019-03-19T06:37:56.442Z,39.38
2019-03-19T06:38:56.425Z,39.38
2019-03-19T06:39:56.433Z,39.38
2019-03-19T06:40:56.406Z,39.38
2019-03-19T06:41:56.399Z,39.38
2019-03-19T06:42:56.385Z,39.38
2019-03-19T06:43:56.373Z,39.38
2019-03-19T06:44:56.374Z,39.38
2019-03-19T06:45:56.361Z,39.38
2019-03-19T06:46:56.341Z,45.00
2019-03-19T06:47:56.336Z,45.00
2019-03-19T06:48:56.322Z,45.00
2019-03-19T06:49:56.326Z,45.00
2019-03-19T06:50:56.301Z,50.62
2019-03-19T06:51:56.299Z,50.62
2019-03-19T06:52:56.280Z,56.25
2019-03-19T06:53:56.278Z,50.62
2019-03-19T06:54:56.266Z,56.25
2019-03-19T06:55:56.245Z,61.88
2019-03-19T06:56:56.237Z,61.88
2019-03-19T06:57:56.228Z,61.88
2019-03-19T06:58:56.216Z,61.88
2019-03-19T06:59:56.203Z,67.50
2019-03-19T07:00:56.201Z,73.12
2019-03-19T07:01:56.186Z,84.38
2019-03-19T07:02:56.171Z,84.38
2019-03-19T07:03:56.161Z,90.00
2019-03-19T07:04:56.148Z,95.62
2019-03-19T07:05:56.141Z,101.25
2019-03-19T07:06:56.137Z,101.25
2019-03-19T07:07:56.113Z,101.25
2019-03-19T07:08:56.102Z,95.62
2019-03-19T07:09:56.097Z,95.62
2019-03-19T07:10:56.080Z,101.25
2019-03-19T07:11:56.069Z,95.62
2019-03-19T07:12:56.067Z,84.38
2019-03-19T07:13:56.049Z,95.62
2019-03-19T07:14:56.037Z,95.62
2019-03-19T07:15:56.029Z,101.25
2019-03-19T07:16:56.016Z,101.25
2019-03-19T07:17:56.014Z,95.62
2019-03-19T07:18:56.000Z,95.62
2019-03-19T07:19:55.983Z,90.00
2019-03-19T07:20:55.981Z,90.00
2019-03-19T07:21:55.972Z,90.00
2019-03-19T07:22:55.967Z,84.38
2019-03-19T07:23:55.948Z,84.38
2019-03-19T07:24:55.933Z,78.75
2019-03-19T07:25:55.920Z,78.75
2019-03-19T07:26:55.910Z,73.12
2019-03-19T07:27:55.935Z,78.75
2019-03-19T07:28:55.893Z,78.75
2019-03-19T07:29:55.879Z,78.75
2019-03-19T07:30:55.873Z,90.00
2019-03-19T07:31:55.873Z,90.00
2019-03-19T07:32:55.849Z,95.62
2019-03-19T07:33:55.858Z,106.88
2019-03-19T07:34:55.824Z,112.50
2019-03-19T07:35:55.814Z,118.12
2019-03-19T07:36:55.803Z,118.12
2019-03-19T07:37:55.800Z,118.12
2019-03-19T07:38:55.789Z,118.12
2019-03-19T07:39:55.772Z,129.38
2019-03-19T07:40:55.759Z,129.38
2019-03-19T07:41:55.751Z,135.00
2019-03-19T07:42:55.769Z,129.38
2019-03-19T07:43:55.733Z,129.38
2019-03-19T07:44:55.722Z,135.00
2019-03-19T07:45:55.710Z,146.25
2019-03-19T07:46:55.695Z,146.25
2019-03-19T07:47:55.685Z,140.62
2019-03-19T07:48:55.693Z,135.00
2019-03-19T07:49:55.669Z,129.38
2019-03-19T07:50:55.658Z,129.38
2019-03-19T07:51:55.643Z,129.38
2019-03-19T07:52:55.632Z,140.62
2019-03-19T07:53:55.633Z,151.88
2019-03-19T07:54:55.617Z,168.75
2019-03-19T07:55:55.626Z,180.00
2019-03-19T07:56:55.587Z,185.62
2019-03-19T07:57:55.581Z,185.62
2019-03-19T07:58:55.569Z,213.75
2019-03-19T07:59:55.567Z,241.88
2019-03-19T08:00:55.545Z,225.00
2019-03-19T08:01:55.541Z,236.25
2019-03-19T08:02:55.522Z,270.00
2019-03-19T08:03:55.525Z,337.50
2019-03-19T08:04:55.513Z,421.88
2019-03-19T08:05:55.495Z,399.38
2019-03-19T08:06:55.482Z,320.62
2019-03-19T08:07:55.470Z,416.25
2019-03-19T08:08:55.463Z,315.00
2019-03-19T08:09:55.458Z,298.12
2019-03-19T08:10:55.450Z,270.00
2019-03-19T08:11:55.426Z,399.38
2019-03-19T08:12:55.414Z,551.25
2019-03-19T08:13:55.409Z,371.25
2019-03-19T08:14:55.393Z,427.50
2019-03-19T08:15:55.388Z,365.62
2019-03-19T08:16:55.376Z,568.12
2019-03-19T08:17:55.360Z,720.00
2019-03-19T08:18:55.348Z,855.00
2019-03-19T08:19:57.192Z,826.88
2019-03-19T08:20:55.338Z,1012.50
2019-03-19T08:21:56.257Z,916.88
2019-03-19T08:22:55.313Z,855.00
2019-03-19T08:23:55.293Z,787.50
2019-03-19T08:24:55.283Z,691.88
2019-03-19T08:25:55.271Z,618.75
2019-03-19T08:26:55.271Z,601.88
2019-03-19T08:27:55.261Z,579.38
2019-03-19T08:28:55.761Z,399.38
2019-03-19T08:29:55.236Z,230.62
2019-03-19T08:30:55.217Z,506.25
2019-03-19T08:31:55.214Z,506.25
2019-03-19T08:32:55.208Z,478.12
2019-03-19T08:33:55.186Z,478.12
2019-03-19T08:34:55.181Z,495.00
2019-03-19T08:35:55.178Z,500.62
2019-03-19T08:36:55.153Z,551.25
2019-03-19T08:37:55.740Z,517.50
2019-03-19T08:38:55.130Z,281.25
2019-03-19T08:39:56.772Z,247.50
2019-03-19T08:40:55.119Z,326.25
2019-03-19T08:41:55.097Z,478.12
2019-03-19T08:42:55.098Z,247.50
2019-03-19T08:43:55.089Z,472.50
2019-03-19T08:44:55.069Z,376.88
2019-03-19T08:45:55.059Z,461.25
2019-03-19T08:46:55.049Z,264.38
2019-03-19T08:47:55.034Z,225.00
2019-03-19T08:48:55.029Z,478.12
2019-03-19T08:49:55.014Z,517.50
2019-03-19T08:50:55.000Z,337.50
2019-03-19T08:51:54.989Z,511.88
2019-03-19T08:52:55.597Z,444.38
2019-03-19T08:53:55.036Z,213.75
2019-03-19T08:54:54.955Z,371.25
2019-03-19T08:55:54.945Z,264.38
2019-03-19T08:56:54.935Z,275.62
2019-03-19T08:57:54.923Z,320.62
2019-03-19T08:59:05.404Z,281.25
2019-03-19T08:59:57.178Z,506.25
2019-03-19T09:00:54.899Z,275.62
2019-03-19T09:01:54.884Z,264.38
2019-03-19T09:02:54.868Z,163.12
2019-03-19T09:03:54.864Z,112.50
2019-03-19T09:04:54.859Z,118.12
2019-03-19T09:05:54.840Z,123.75
2019-03-19T09:06:54.831Z,106.88
2019-03-19T09:07:54.815Z,112.50
2019-03-19T09:08:54.808Z,118.12
2019-03-19T09:09:54.801Z,112.50
2019-03-19T09:10:54.795Z,135.00
2019-03-19T09:11:54.771Z,163.12
2019-03-19T09:12:54.770Z,421.88
2019-03-19T09:13:54.754Z,506.25
2019-03-19T09:14:54.752Z,461.25
2019-03-19T09:15:54.733Z,258.75
2019-03-19T09:16:54.725Z,315.00
2019-03-19T09:17:54.709Z,438.75
2019-03-19T09:18:54.694Z,500.62
2019-03-19T09:19:54.688Z,438.75
2019-03-19T09:20:54.678Z,292.50
2019-03-19T09:21:54.717Z,444.38
2019-03-19T09:22:54.655Z,466.88
2019-03-19T09:23:54.640Z,489.38
2019-03-19T09:24:54.633Z,540.00
2019-03-19T09:25:56.432Z,596.25
2019-03-19T09:26:54.608Z,568.12
2019-03-19T09:27:54.607Z,337.50
2019-03-19T09:28:54.585Z,219.38
2019-03-19T09:29:54.575Z,185.62
2019-03-19T09:30:54.567Z,202.50
2019-03-19T09:31:54.556Z,247.50
2019-03-19T09:32:54.552Z,309.38
2019-03-19T09:33:54.530Z,545.62
2019-03-19T09:34:54.526Z,348.75
2019-03-19T09:35:54.521Z,275.62
2019-03-19T09:36:57.560Z,213.75
2019-03-19T09:37:58.725Z,213.75
2019-03-19T09:38:54.475Z,275.62
2019-03-19T09:39:54.467Z,630.00
2019-03-19T09:40:54.455Z,517.50
2019-03-19T09:41:54.445Z,309.38
2019-03-19T09:42:54.444Z,180.00
2019-03-19T09:43:54.423Z,135.00
2019-03-19T09:44:58.378Z,123.75
2019-03-19T09:45:54.402Z,129.38
2019-03-19T09:46:54.391Z,140.62
2019-03-19T09:47:54.436Z,157.50
2019-03-19T09:48:54.370Z,163.12
2019-03-19T09:49:54.360Z,163.12
2019-03-19T09:50:54.353Z,180.00
2019-03-19T09:51:54.336Z,168.75
2019-03-19T09:52:54.320Z,174.38
2019-03-19T09:53:54.335Z,168.75
2019-03-19T09:54:54.299Z,264.38
2019-03-19T09:55:54.289Z,151.88
2019-03-19T09:56:54.279Z,140.62
2019-03-19T09:57:54.266Z,163.12
2019-03-19T09:58:54.254Z,174.38
2019-03-19T09:59:54.254Z,185.62
2019-03-19T10:00:54.233Z,163.12
2019-03-19T10:01:54.227Z,146.25
2019-03-19T10:02:54.230Z,146.25
2019-03-19T10:03:54.210Z,157.50
2019-03-19T10:04:54.202Z,163.12
2019-03-19T10:05:54.184Z,163.12
2019-03-19T10:06:54.170Z,157.50
2019-03-19T10:07:55.661Z,129.38
2019-03-19T10:08:54.161Z,106.88
2019-03-19T10:09:54.134Z,112.50
2019-03-19T10:10:54.124Z,118.12
2019-03-19T10:11:54.112Z,118.12
2019-03-19T10:12:54.102Z,106.88
2019-03-19T10:13:54.099Z,112.50
2019-03-19T10:14:54.080Z,129.38
2019-03-19T10:15:54.113Z,270.00
2019-03-19T10:16:54.058Z,275.62
2019-03-19T10:17:54.052Z,286.88
2019-03-19T10:18:54.041Z,281.25
2019-03-19T10:19:54.032Z,275.62
2019-03-19T10:20:54.033Z,281.25
2019-03-19T10:21:54.038Z,286.88
2019-03-19T10:22:53.993Z,298.12
2019-03-19T10:23:53.986Z,331.88
2019-03-19T10:24:53.972Z,343.12
2019-03-19T10:25:53.968Z,421.88
2019-03-19T10:26:53.957Z,421.88
2019-03-19T10:27:53.950Z,315.00
2019-03-19T10:28:53.926Z,466.88
2019-03-19T10:29:53.922Z,433.12
2019-03-19T10:30:53.907Z,433.12
2019-03-19T10:31:53.905Z,405.00
2019-03-19T10:32:53.897Z,399.38
2019-03-19T10:33:53.877Z,450.00
2019-03-19T10:34:53.862Z,466.88
2019-03-19T10:35:53.855Z,500.62
2019-03-19T10:36:53.849Z,343.12
2019-03-19T10:37:53.843Z,230.62
2019-03-19T10:38:53.827Z,191.25
2019-03-19T10:39:54.757Z,168.75
2019-03-19T10:40:53.801Z,140.62
2019-03-19T10:41:53.791Z,135.00
2019-03-19T10:42:53.790Z,129.38
2019-03-19T10:43:53.762Z,135.00
2019-03-19T10:44:53.757Z,123.75
2019-03-19T10:45:53.749Z,118.12
2019-03-19T10:46:53.729Z,112.50
2019-03-19T10:47:53.755Z,118.12
2019-03-19T10:48:53.714Z,118.12
2019-03-19T10:49:53.702Z,118.12
2019-03-19T10:50:53.685Z,135.00
2019-03-19T10:51:53.681Z,146.25
2019-03-19T10:52:53.669Z,157.50
2019-03-19T10:53:53.661Z,174.38
2019-03-19T10:54:53.648Z,196.88
2019-03-19T10:55:53.642Z,208.12
2019-03-19T10:56:53.626Z,219.38
2019-03-19T10:57:53.611Z,270.00
2019-03-19T10:58:53.607Z,286.88
2019-03-19T10:59:53.595Z,247.50
2019-03-19T11:00:53.585Z,275.62
2019-03-19T11:01:53.570Z,264.38
2019-03-19T11:02:53.559Z,433.12
2019-03-19T11:03:53.600Z,410.62
2019-03-19T11:04:53.534Z,382.50
2019-03-19T11:05:53.522Z,382.50
2019-03-19T11:06:53.515Z,365.62
2019-03-19T11:07:53.506Z,399.38
2019-03-19T11:08:53.487Z,202.50
2019-03-19T11:09:53.493Z,157.50
2019-03-19T11:10:53.470Z,151.88
2019-03-19T11:11:53.459Z,146.25
2019-03-19T11:12:53.450Z,146.25
2019-03-19T11:13:53.438Z,168.75
2019-03-19T11:14:53.431Z,191.25
2019-03-19T11:15:53.416Z,213.75
2019-03-19T11:16:53.428Z,444.38
2019-03-19T11:17:53.397Z,483.75
2019-03-19T11:18:53.502Z,478.12
2019-03-19T11:19:53.502Z,455.62
2019-03-19T11:20:54.265Z,264.38
2019-03-19T11:21:53.356Z,298.12
2019-03-19T11:22:55.268Z,360.00
2019-03-19T11:23:53.463Z,354.38
2019-03-19T11:24:53.316Z,343.12
2019-03-19T11:25:54.867Z,343.12
2019-03-19T11:26:53.294Z,337.50
2019-03-19T11:27:53.286Z,337.50
2019-03-19T11:28:53.301Z,337.50
2019-03-19T11:29:59.746Z,343.12
2019-03-19T11:30:54.254Z,343.12
2019-03-19T11:31:53.242Z,343.12
2019-03-19T11:33:02.855Z,348.75
2019-03-19T11:33:53.217Z,348.75
2019-03-19T11:34:53.203Z,348.75
2019-03-19T11:35:53.272Z,213.75
2019-03-19T11:36:57.822Z,376.88
2019-03-19T11:37:53.179Z,275.62
2019-03-19T11:38:53.163Z,213.75
2019-03-19T11:39:53.155Z,219.38
2019-03-19T11:40:53.146Z,236.25
2019-03-19T11:41:53.153Z,202.50
2019-03-19T11:42:53.115Z,163.12
2019-03-19T11:43:53.110Z,140.62
2019-03-19T11:44:53.104Z,123.75
2019-03-19T11:45:53.093Z,112.50
2019-03-19T11:46:53.656Z,106.88
2019-03-19T11:47:53.079Z,101.25
2019-03-19T11:48:53.057Z,106.88
2019-03-19T11:49:53.044Z,112.50
2019-03-19T11:50:53.039Z,118.12
2019-03-19T11:51:53.032Z,123.75
2019-03-19T11:52:53.152Z,129.38
2019-03-19T11:53:53.014Z,135.00
2019-03-19T11:54:52.989Z,140.62
2019-03-19T11:55:52.974Z,146.25
2019-03-19T11:56:52.963Z,151.88
2019-03-19T11:57:52.955Z,151.88
2019-03-19T11:58:52.958Z,157.50
2019-03-19T11:59:52.955Z,157.50
2019-03-19T12:00:53.018Z,157.50
2019-03-19T12:01:52.913Z,157.50
2019-03-19T12:02:52.896Z,151.88
2019-03-19T12:03:52.905Z,151.88
2019-03-19T12:04:52.880Z,157.50
2019-03-19T12:05:52.867Z,174.38
2019-03-19T12:06:52.855Z,180.00
2019-03-19T12:07:52.899Z,196.88
2019-03-19T12:08:52.857Z,225.00
2019-03-19T12:09:52.825Z,236.25
2019-03-19T12:10:52.820Z,241.88
2019-03-19T12:11:52.803Z,354.38
2019-03-19T12:12:52.793Z,230.62
2019-03-19T12:13:52.790Z,247.50
2019-03-19T12:14:52.772Z,303.75
2019-03-19T12:15:52.765Z,331.88
2019-03-19T12:16:52.757Z,354.38
2019-03-19T12:17:52.734Z,343.12
2019-03-19T12:18:52.751Z,275.62
2019-03-19T12:19:52.727Z,236.25
2019-03-19T12:20:52.700Z,208.12
2019-03-19T12:21:52.696Z,185.62
2019-03-19T12:22:52.683Z,163.12
2019-03-19T12:23:52.674Z,151.88
2019-03-19T12:24:52.679Z,151.88
2019-03-19T12:25:52.667Z,157.50
2019-03-19T12:26:52.639Z,157.50
2019-03-19T12:27:52.634Z,157.50
2019-03-19T12:28:52.689Z,168.75
2019-03-19T12:29:52.618Z,185.62
2019-03-19T12:30:54.830Z,208.12
2019-03-19T12:31:52.580Z,225.00
2019-03-19T12:32:52.578Z,213.75
2019-03-19T12:33:52.560Z,213.75
2019-03-19T12:34:52.568Z,185.62
2019-03-19T12:35:52.542Z,163.12
2019-03-19T12:36:52.535Z,241.88
2019-03-19T12:37:52.524Z,371.25
2019-03-19T12:38:52.510Z,236.25
2019-03-19T12:39:52.509Z,382.50
2019-03-19T12:40:52.495Z,410.62
2019-03-19T12:41:52.473Z,416.25
2019-03-19T12:42:52.462Z,382.50
2019-03-19T12:43:52.454Z,230.62
2019-03-19T12:44:52.447Z,196.88
2019-03-19T12:45:52.441Z,168.75
2019-03-19T12:46:52.421Z,163.12
2019-03-19T12:47:52.423Z,157.50
2019-03-19T12:48:54.357Z,151.88
2019-03-19T12:49:52.393Z,140.62
2019-03-19T12:50:52.504Z,146.25
2019-03-19T12:51:52.376Z,151.88
2019-03-19T12:52:52.355Z,157.50
2019-03-19T12:53:52.345Z,174.38
2019-03-19T12:54:52.329Z,185.62
2019-03-19T12:55:52.325Z,185.62
2019-03-19T12:56:52.330Z,191.25
2019-03-19T12:57:52.301Z,196.88
2019-03-19T12:58:52.287Z,191.25
2019-03-19T12:59:52.283Z,208.12
2019-03-19T13:00:52.267Z,208.12
2019-03-19T13:01:52.266Z,264.38
2019-03-19T13:02:52.259Z,253.12
2019-03-19T13:03:52.263Z,264.38
2019-03-19T13:04:52.236Z,286.88
2019-03-19T13:05:52.208Z,731.25
2019-03-19T13:06:52.312Z,686.25
2019-03-19T13:07:52.191Z,1513.12
2019-03-19T13:08:52.182Z,281.25
2019-03-19T13:09:52.166Z,180.00
2019-03-19T13:10:52.159Z,163.12
2019-03-19T13:11:52.149Z,151.88
2019-03-19T13:12:52.153Z,151.88
2019-03-19T13:13:52.122Z,157.50
2019-03-19T13:14:52.121Z,180.00
2019-03-19T13:15:52.098Z,180.00
2019-03-19T13:16:52.089Z,219.38
2019-03-19T13:17:52.105Z,196.88
2019-03-19T13:18:52.079Z,202.50
2019-03-19T13:19:52.059Z,208.12
2019-03-19T13:20:53.616Z,219.38
2019-03-19T13:21:52.040Z,213.75
2019-03-19T13:22:52.032Z,185.62
2019-03-19T13:23:52.010Z,163.12
2019-03-19T13:24:52.019Z,151.88
2019-03-19T13:25:51.999Z,135.00
2019-03-19T13:26:52.029Z,123.75
2019-03-19T13:27:51.973Z,123.75
2019-03-19T13:28:51.988Z,118.12
2019-03-19T13:29:51.949Z,112.50
2019-03-19T13:30:52.087Z,106.88
2019-03-19T13:31:51.926Z,101.25
2019-03-19T13:32:51.918Z,101.25
2019-03-19T13:33:51.925Z,101.25
2019-03-19T13:34:51.903Z,95.62
2019-03-19T13:35:51.895Z,95.62
2019-03-19T13:36:51.909Z,90.00
2019-03-19T13:37:51.875Z,84.38
2019-03-19T13:38:51.855Z,90.00
2019-03-19T13:39:51.867Z,90.00
2019-03-19T13:40:51.828Z,90.00
2019-03-19T13:41:51.820Z,90.00
2019-03-19T13:42:51.805Z,90.00
2019-03-19T13:43:51.899Z,84.38
2019-03-19T13:44:51.783Z,84.38
2019-03-19T13:45:51.801Z,90.00
2019-03-19T13:46:51.762Z,90.00
2019-03-19T13:47:51.749Z,95.62
2019-03-19T13:48:51.743Z,101.25
2019-03-19T13:49:51.728Z,106.88
2019-03-19T13:50:58.791Z,112.50
2019-03-19T13:51:51.749Z,123.75
2019-03-19T13:52:51.706Z,129.38
2019-03-19T13:53:51.687Z,140.62
2019-03-19T13:54:51.673Z,151.88
2019-03-19T13:55:51.663Z,163.12
2019-03-19T13:56:51.664Z,174.38
2019-03-19T13:57:59.701Z,180.00
2019-03-19T13:58:51.629Z,180.00
2019-03-19T13:59:59.448Z,185.62
2019-03-19T14:00:55.530Z,191.25
2019-03-19T14:01:58.644Z,185.62
2019-03-19T14:02:59.505Z,174.38
2019-03-19T14:03:51.598Z,157.50
2019-03-19T14:04:51.569Z,146.25
2019-03-19T14:05:51.553Z,140.62
2019-03-19T14:06:51.550Z,146.25
2019-03-19T14:07:51.532Z,157.50
2019-03-19T14:08:51.523Z,157.50
2019-03-19T14:09:51.517Z,157.50
2019-03-19T14:10:51.533Z,157.50
2019-03-19T14:11:51.492Z,157.50
2019-03-19T14:12:58.587Z,163.12
2019-03-19T14:13:51.470Z,168.75
2019-03-19T14:15:00.568Z,168.75
2019-03-19T14:15:51.449Z,180.00
2019-03-19T14:16:51.490Z,180.00
2019-03-19T14:17:51.433Z,180.00
2019-03-19T14:18:51.432Z,185.62
2019-03-19T14:19:51.497Z,180.00
2019-03-19T14:20:53.009Z,174.38
2019-03-19T14:21:51.386Z,185.62
2019-03-19T14:22:51.397Z,208.12
2019-03-19T14:23:51.367Z,180.00
2019-03-19T14:24:51.347Z,174.38
2019-03-19T14:25:51.351Z,174.38
2019-03-19T14:26:51.338Z,168.75
2019-03-19T14:27:51.317Z,168.75
2019-03-19T14:28:51.319Z,174.38
2019-03-19T14:29:51.793Z,180.00
2019-03-19T14:30:51.280Z,180.00
2019-03-19T14:31:51.582Z,180.00
2019-03-19T14:32:51.275Z,191.25
2019-03-19T14:33:51.251Z,196.88
2019-03-19T14:34:51.251Z,202.50
2019-03-19T14:35:51.241Z,219.38
2019-03-19T14:36:51.219Z,191.25
2019-03-19T14:37:51.219Z,191.25
2019-03-19T14:38:51.202Z,196.88
2019-03-19T14:39:51.189Z,185.62
2019-03-19T14:40:51.174Z,185.62
2019-03-19T14:41:52.056Z,180.00
2019-03-19T14:42:51.162Z,174.38
2019-03-19T14:43:51.139Z,163.12
2019-03-19T14:44:51.130Z,202.50
2019-03-19T14:45:51.131Z,168.75
2019-03-19T14:46:51.111Z,168.75
2019-03-19T14:47:51.119Z,163.12
2019-03-19T14:48:51.094Z,157.50
2019-03-19T14:49:51.190Z,151.88
2019-03-19T14:50:51.060Z,146.25
2019-03-19T14:51:51.051Z,140.62
2019-03-19T14:52:51.065Z,135.00
2019-03-19T14:53:51.033Z,135.00
2019-03-19T14:54:51.034Z,135.00
2019-03-19T14:55:51.062Z,135.00
2019-03-19T14:56:51.014Z,129.38
2019-03-19T14:57:51.294Z,129.38
2019-03-19T14:58:50.993Z,129.38
2019-03-19T14:59:50.971Z,135.00
2019-03-19T15:00:50.996Z,168.75
2019-03-19T15:01:50.940Z,180.00
2019-03-19T15:02:50.937Z,174.38
2019-03-19T15:03:50.965Z,163.12
2019-03-19T15:04:50.938Z,129.38
2019-03-19T15:05:50.907Z,118.12
2019-03-19T15:06:50.896Z,112.50
2019-03-19T15:07:50.875Z,101.25
2019-03-19T15:08:50.865Z,140.62
2019-03-19T15:09:50.868Z,146.25
2019-03-19T15:10:50.858Z,157.50
2019-03-19T15:11:50.836Z,101.25
2019-03-19T15:12:50.827Z,517.50
2019-03-19T15:13:50.811Z,95.62
2019-03-19T15:14:50.810Z,95.62
2019-03-19T15:15:50.794Z,90.00
2019-03-19T15:16:50.785Z,78.75
2019-03-19T15:17:50.774Z,73.12
2019-03-19T15:18:50.766Z,73.12
2019-03-19T15:19:50.794Z,67.50
2019-03-19T15:20:52.970Z,61.88
2019-03-19T15:21:50.727Z,67.50
2019-03-19T15:22:50.712Z,73.12
2019-03-19T15:23:50.719Z,78.75
2019-03-19T15:24:50.694Z,78.75
2019-03-19T15:25:50.699Z,78.75
2019-03-19T15:26:50.672Z,78.75
2019-03-19T15:27:50.666Z,67.50
2019-03-19T15:28:50.649Z,73.12
2019-03-19T15:29:50.671Z,73.12
2019-03-19T15:30:50.625Z,73.12
2019-03-19T15:31:50.629Z,78.75
2019-03-19T15:32:50.607Z,78.75
2019-03-19T15:33:50.607Z,78.75
2019-03-19T15:34:50.589Z,78.75
2019-03-19T15:35:50.596Z,84.38
2019-03-19T15:36:50.564Z,78.75
2019-03-19T15:37:50.547Z,73.12
2019-03-19T15:38:50.543Z,78.75
2019-03-19T15:39:50.535Z,78.75
2019-03-19T15:40:50.537Z,78.75
2019-03-19T15:41:57.584Z,84.38
2019-03-19T15:42:50.502Z,84.38
2019-03-19T15:43:50.500Z,84.38
2019-03-19T15:44:50.476Z,84.38
2019-03-19T15:46:00.109Z,78.75
2019-03-19T15:46:57.508Z,78.75
2019-03-19T15:47:57.507Z,73.12
2019-03-19T15:49:00.355Z,73.12
2019-03-19T15:49:50.434Z,73.12
2019-03-19T15:50:58.177Z,67.50
2019-03-19T15:51:50.393Z,67.50
2019-03-19T15:52:58.479Z,61.88
2019-03-19T15:53:50.379Z,61.88
2019-03-19T15:54:50.360Z,56.25
2019-03-19T15:55:50.356Z,56.25
2019-03-19T15:56:50.340Z,50.62
2019-03-19T15:57:50.348Z,50.62
2019-03-19T15:58:50.317Z,45.00
2019-03-19T15:59:50.357Z,39.38
2019-03-19T16:00:50.322Z,33.75
2019-03-19T16:01:50.290Z,33.75
2019-03-19T16:02:50.280Z,28.12
2019-03-19T16:03:50.313Z,22.50
2019-03-19T16:04:50.718Z,22.50
2019-03-19T16:05:50.242Z,22.50
2019-03-19T16:06:58.229Z,16.88
2019-03-19T16:07:59.261Z,16.88
2019-03-19T16:08:50.213Z,16.88
2019-03-19T16:09:50.206Z,16.88
2019-03-19T16:10:50.194Z,16.88
2019-03-19T16:13:06.272Z,16.88
2019-03-19T16:14:14.951Z,16.88
2019-03-19T16:15:13.983Z,16.88
2019-03-19T16:16:17.221Z,16.88
2019-03-19T16:17:06.175Z,22.50
2019-03-19T16:18:14.223Z,22.50
2019-03-19T16:20:33.178Z,28.12
2019-03-19T16:21:41.230Z,28.12
2019-03-19T16:22:42.029Z,28.12
2019-03-19T16:23:41.227Z,28.12
2019-03-19T16:24:41.051Z,33.75
2019-03-19T16:25:34.047Z,33.75
2019-03-19T16:26:40.148Z,33.75
2019-03-19T16:27:33.095Z,33.75
2019-03-19T16:28:33.099Z,28.12
2019-03-19T16:29:33.081Z,28.12
2019-03-19T16:30:33.073Z,22.50
2019-03-19T16:31:33.052Z,22.50
2019-03-19T16:32:40.597Z,22.50
2019-03-19T16:33:40.231Z,22.50
2019-03-19T16:34:40.635Z,16.88
2019-03-19T16:35:33.015Z,22.50
2019-03-19T16:36:40.662Z,22.50
2019-03-19T16:37:32.992Z,16.88
2019-03-19T16:38:33.743Z,16.88
2019-03-19T16:39:35.186Z,16.88
2019-03-19T16:40:32.969Z,16.88
2019-03-19T16:41:32.955Z,16.88
2019-03-19T16:42:32.934Z,16.88
2019-03-19T16:43:40.695Z,16.88
2019-03-19T16:44:32.918Z,16.88
2019-03-19T16:45:39.961Z,16.88
2019-03-19T16:46:32.898Z,16.88
2019-03-19T16:47:32.891Z,16.88
2019-03-19T16:48:32.878Z,11.25
2019-03-19T16:49:32.880Z,11.25
2019-03-19T16:50:32.877Z,11.25
2019-03-19T16:51:32.843Z,11.25
2019-03-19T16:52:32.837Z,11.25
2019-03-19T16:53:32.823Z,11.25
2019-03-19T16:54:32.808Z,11.25
2019-03-19T16:55:32.804Z,11.25
2019-03-19T16:56:32.798Z,11.25
2019-03-19T16:57:32.809Z,11.25
2019-03-19T16:58:32.773Z,11.25
2019-03-19T16:59:32.754Z,11.25
2019-03-19T17:00:32.744Z,11.25
2019-03-19T17:01:32.741Z,11.25
2019-03-19T17:02:32.734Z,11.25
2019-03-19T17:03:32.722Z,5.62
2019-03-19T17:04:32.716Z,5.62
2019-03-19T17:05:32.690Z,5.62
2019-03-19T17:06:32.682Z,5.62
2019-03-19T17:07:32.682Z,5.62
2019-03-19T17:08:32.673Z,5.62
2019-03-19T17:09:32.653Z,5.62
2019-03-19T17:10:32.650Z,5.62
2019-03-19T17:11:32.630Z,5.62
2019-03-19T17:12:32.644Z,5.62
2019-03-19T17:13:32.611Z,0.00
2019-03-19T17:14:32.595Z,0.00
2019-03-19T17:15:32.586Z,0.00
2019-03-19T17:16:32.581Z,0.00
2019-03-19T17:17:32.565Z,0.00
2019-03-19T17:18:32.572Z,0.00
2019-03-19T17:19:32.547Z,0.00
2019-03-19T17:20:32.532Z,0.00
2019-03-19T17:21:32.526Z,0.00
2019-03-19T17:22:32.518Z,0.00
2019-03-19T17:23:32.512Z,0.00
2019-03-19T17:24:32.490Z,0.00
2019-03-19T17:25:32.482Z,0.00
2019-03-19T17:26:32.484Z,0.00
2019-03-19T17:27:32.465Z,0.00
2019-03-19T17:28:32.447Z,0.00
2019-03-19T17:29:32.450Z,0.00
2019-03-19T17:30:32.422Z,0.00
2019-03-19T17:31:32.421Z,0.00
2019-03-19T17:32:32.412Z,0.00
2019-03-19T17:33:40.229Z,0.00
2019-03-19T17:34:32.418Z,0.00
2019-03-19T17:35:32.372Z,0.00
2019-03-19T17:36:32.364Z,0.00
2019-03-19T17:37:32.357Z,0.00
2019-03-19T17:38:32.345Z,0.00
2019-03-19T17:39:32.327Z,0.00
2019-03-19T17:40:40.825Z,0.00
2019-03-19T17:41:33.311Z,0.00
2019-03-19T17:42:32.296Z,0.00
2019-03-19T17:43:32.922Z,0.00
2019-03-19T17:44:32.291Z,0.00
2019-03-19T17:45:32.291Z,0.00
2019-03-19T17:46:32.255Z,0.00
2019-03-19T17:47:32.247Z,0.00
2019-03-19T17:48:32.236Z,0.00
2019-03-19T17:49:32.234Z,0.00
2019-03-19T17:50:32.217Z,0.00
2019-03-19T17:51:32.212Z,0.00
2019-03-19T17:52:32.189Z,0.00
2019-03-19T17:53:32.178Z,0.00
2019-03-19T17:54:32.182Z,0.00
2019-03-19T17:55:32.162Z,0.00
2019-03-19T17:56:32.155Z,0.00
2019-03-19T17:57:32.138Z,0.00
2019-03-19T17:58:32.124Z,0.00
2019-03-19T17:59:32.138Z,0.00
2019-03-19T18:00:32.103Z,0.00
2019-03-19T18:01:32.098Z,0.00
2019-03-19T18:02:32.129Z,0.00
2019-03-19T18:03:32.072Z,0.00
2019-03-19T18:04:32.066Z,0.00
2019-03-19T18:05:32.051Z,0.00
2019-03-19T18:06:32.043Z,0.00
2019-03-19T18:07:32.029Z,0.00
2019-03-19T18:08:32.062Z,0.00
2019-03-19T18:09:32.008Z,0.00
2019-03-19T18:10:32.002Z,0.00
2019-03-19T18:11:31.985Z,0.00
2019-03-19T18:12:31.983Z,0.00
2019-03-19T18:13:31.972Z,0.00
2019-03-19T18:14:31.970Z,0.00
2019-03-19T18:15:31.949Z,0.00
2019-03-19T18:16:31.934Z,0.00
2019-03-19T18:17:31.932Z,0.00
2019-03-19T18:18:31.948Z,0.00
2019-03-19T18:19:31.898Z,0.00
2019-03-19T18:20:31.891Z,0.00
2019-03-19T18:21:31.883Z,0.00
2019-03-19T18:22:31.867Z,0.00
2019-03-19T18:23:31.990Z,0.00
2019-03-19T18:24:31.872Z,0.00